Tiwala — V2DX3 — position and weather

sailwx.info

Track history (hours):
 
Tides and Currents Weather Stations Pressure Air Temp Water Temp Dewpoint Dewpoint Depression Visibility Wind Speed Wind Dir Waves Ship Positions

Tiwala

Last reported at 2017-Sep-24 14:00 UTC. Time now 2017-Sep-24 14:16 UTC.
Position N 52°24' E 004°52'.

Length 107 m; draft 5.5 m.

Type: Ship. MMSI: 305364000.

Date/timePositionNaut miles runAvg speedWind from/ knotsBaromVisibWave heightAir tempDewpointWater temp
2017-Sep-24 14:00N 52°24' E 004°52'0 0.0
2017-Sep-24 13:30N 52°24' E 004°52'0 0.0
2017-Sep-24 13:00N 52°24' E 004°52'0 0.0
2017-Sep-24 12:30N 52°24' E 004°52'0 0.0
2017-Sep-24 12:00N 52°24' E 004°52'0 0.0
2017-Sep-24 11:30N 52°24' E 004°52'0 0.0
2017-Sep-24 11:00N 52°24' E 004°52'0 0.0
2017-Sep-24 10:30N 52°24' E 004°52'0 0.0
2017-Sep-24 09:57N 52°24' E 004°52'0 0.0
2017-Sep-24 09:30N 52°24' E 004°52'0 0.0
2017-Sep-24 09:00N 52°24' E 004°52'0 0.0
2017-Sep-24 08:30N 52°24' E 004°52'0 0.0
2017-Sep-24 07:57N 52°24' E 004°52'0 0.0
2017-Sep-24 07:30N 52°24' E 004°52'0 0.0
2017-Sep-24 06:57N 52°24' E 004°52'0 0.0
2017-Sep-24 06:30N 52°24' E 004°52'0 0.0
2017-Sep-24 05:57N 52°24' E 004°52'0 0.0
2017-Sep-24 05:30N 52°24' E 004°52'0 0.0
2017-Sep-24 05:00N 52°24' E 004°52'0 0.0
2017-Sep-24 04:30N 52°24' E 004°52'0 0.0
2017-Sep-24 04:00N 52°24' E 004°52'0 0.0
2017-Sep-24 03:30N 52°24' E 004°52'0 0.0
2017-Sep-24 03:00N 52°24' E 004°52'0 0.0
2017-Sep-24 02:30N 52°24' E 004°52'0 0.0
2017-Sep-24 02:00N 52°24' E 004°52'0 0.0
2017-Sep-24 01:30N 52°24' E 004°52'0 0.0
2017-Sep-24 01:00N 52°24' E 004°52'0 0.0
2017-Sep-24 00:30N 52°24' E 004°52'0 0.0
2017-Sep-24 00:00N 52°24' E 004°52'0 0.0
2017-Sep-23 23:27N 52°24' E 004°52'0 0.0
2017-Sep-23 23:00N 52°24' E 004°52'0 0.0
2017-Sep-23 22:30N 52°24' E 004°52'0 0.0
2017-Sep-23 22:00N 52°24' E 004°52'0 0.0
2017-Sep-23 21:30N 52°24' E 004°52'0 0.0
2017-Sep-23 21:00N 52°24' E 004°52'0 0.0
2017-Sep-23 20:30N 52°24' E 004°52'0 0.0
2017-Sep-23 20:00N 52°24' E 004°52'49 1.1
2017-Sep-22 00:12N 53°09' E 004°22'4 9.8
2017-Sep-21 23:48N 53°13' E 004°25'5 9.9
2017-Sep-21 23:17N 53°17' E 004°29'3 9.8
2017-Sep-21 23:00N 53°20' E 004°31'5 9.6
2017-Sep-21 22:29N 53°24' E 004°35'4 8.9
2017-Sep-21 22:00N 53°28' E 004°39'5 9.0
2017-Sep-21 21:30N 53°29' E 004°46'4 8.7
2017-Sep-21 21:00N 53°31' E 004°53'4 8.4
2017-Sep-21 20:30N 53°32' E 004°59'4 7.9
2017-Sep-21 20:00N 53°34' E 005°05'4 7.8
2017-Sep-21 19:29N 53°35' E 005°12'4 7.6
2017-Sep-21 18:56N 53°37' E 005°19'59 9.5
2017-Sep-21 12:45N 53°55' E 006°53'30 8.5
2017-Sep-21 09:15N 54°01' E 007°43'2 7.9
2017-Sep-21 09:00N 54°01' E 007°46'4 7.9
2017-Sep-21 08:29N 54°01' E 007°53'4 7.9
2017-Sep-21 07:58N 54°01' E 008°00'4 8.1
2017-Sep-21 07:30N 54°01' E 008°06'4 8.8
2017-Sep-21 07:00N 54°01' E 008°14'510.1
2017-Sep-21 06:29N 53°59' E 008°23'611.6
2017-Sep-21 06:00N 53°58' E 008°32'611.9
2017-Sep-21 05:30N 53°55' E 008°41'612.5
2017-Sep-21 05:00N 53°51' E 008°48'612.3
2017-Sep-21 04:30N 53°51' E 008°58'611.3
2017-Sep-21 04:00N 53°53' E 009°07'1 2.5
2017-Sep-21 03:30N 53°54' E 009°09'1 1.3
2017-Sep-21 03:00N 53°54' E 009°10'4 7.0
2017-Sep-21 02:30N 53°57' E 009°14'4 8.3
2017-Sep-21 02:00N 54°00' E 009°18'4 8.3
2017-Sep-21 01:30N 54°04' E 009°19'4 8.2
2017-Sep-21 01:00N 54°08' E 009°20'4 8.3
2017-Sep-21 00:30N 54°10' E 009°26'4 8.2
2017-Sep-21 00:00N 54°12' E 009°33'2 3.2
2017-Sep-20 23:30N 54°13' E 009°35'4 7.4
2017-Sep-20 23:00N 54°16' E 009°38'4 7.5
2017-Sep-20 22:30N 54°19' E 009°43'4 8.0
2017-Sep-20 22:00N 54°22' E 009°47'25 5.1
2017-Sep-20 17:01N 54°32' E 010°27'0 9.5
2017-Sep-20 16:59N 54°32' E 010°27'5 9.7
2017-Sep-20 16:30N 54°34' E 010°34'5 9.3
2017-Sep-20 16:00N 54°35' E 010°42'5 9.4
2017-Sep-20 15:30N 54°35' E 010°50'5 9.5
2017-Sep-20 15:00N 54°36' E 010°59'9 9.2
2017-Sep-20 14:00N 54°35' E 011°14'5 9.3
2017-Sep-20 13:30N 54°33' E 011°22'5 9.5
2017-Sep-20 13:00N 54°31' E 011°29'5 9.2
2017-Sep-20 12:30N 54°29' E 011°36'5 9.2
2017-Sep-20 12:00N 54°27' E 011°44'4 8.9
2017-Sep-20 11:30N 54°27' E 011°51'5 9.0
2017-Sep-20 11:00N 54°27' E 011°59'4 9.0
2017-Sep-20 10:30N 54°27' E 012°07'10 8.6
2017-Sep-20 09:17N 54°36' E 012°15'2 8.9
2017-Sep-20 09:00N 54°38' E 012°18'5 9.0
2017-Sep-20 08:30N 54°40' E 012°24'66 9.1
2017-Sep-20 01:15N 55°08' E 014°09'3 9.5
2017-Sep-20 00:57N 55°10' E 014°12'4 9.6
2017-Sep-20 00:29N 55°13' E 014°17'5 9.7
2017-Sep-19 23:58N 55°17' E 014°23'4 9.8
2017-Sep-19 23:30N 55°21' E 014°28'5 9.8
2017-Sep-19 23:00N 55°24' E 014°33'5 9.7
2017-Sep-19 22:29N 55°28' E 014°40'5 9.9
2017-Sep-19 22:00N 55°30' E 014°47'8 9.9
2017-Sep-19 21:13N 55°34' E 014°59'2 9.7
2017-Sep-19 21:00N 55°35' E 015°02'5 9.6
2017-Sep-19 20:26N 55°38' E 015°11'4 9.5
2017-Sep-19 20:00N 55°40' E 015°17'5 9.4
2017-Sep-19 19:30N 55°42' E 015°24'5 9.6
2017-Sep-19 19:00N 55°45' E 015°31'5 9.5
2017-Sep-19 18:30N 55°47' E 015°39'5 9.4
2017-Sep-19 18:00N 55°49' E 015°46'5 9.2
2017-Sep-19 17:30N 55°52' E 015°53'5 9.2
2017-Sep-19 17:00N 55°54' E 015°60'5 9.1
2017-Sep-19 16:30N 55°56' E 016°07'5 9.2
2017-Sep-19 16:00N 55°59' E 016°14'5 9.4
2017-Sep-19 15:30N 56°01' E 016°21'5 9.3
2017-Sep-19 15:00N 56°04' E 016°28'5 9.5
2017-Sep-19 14:30N 56°06' E 016°36'5 9.4
2017-Sep-19 14:00N 56°09' E 016°43'5 9.3
2017-Sep-19 13:30N 56°13' E 016°46'5 9.6
2017-Sep-19 12:57N 56°18' E 016°50'228 9.4
2017-Sep-18 12:48N 59°47' E 019°39'310.0
2017-Sep-18 12:30N 59°50' E 019°35'5 9.9
2017-Sep-18 12:00N 59°53' E 019°29'510.1
2017-Sep-18 11:30N 59°57' E 019°23'  
Track history (hours):
 
Tides and Currents Weather Stations Pressure Air Temp Water Temp Dewpoint Dewpoint Depression Visibility Wind Speed Wind Dir Waves Ship Positions

Tiwala

Last reported at 2017-Sep-24 14:00 UTC. Time now 2017-Sep-24 14:16 UTC.
Position N 52°24' E 004°52'.

Length 107 m; draft 5.5 m.

Type: Ship. MMSI: 305364000.

Date/timePositionNaut miles runAvg speedWind from/ knotsBaromVisibWave heightAir tempDewpointWater temp
2017-Sep-24 14:00N 52°24' E 004°52'0 0.0
2017-Sep-24 13:30N 52°24' E 004°52'0 0.0
2017-Sep-24 13:00N 52°24' E 004°52'0 0.0
2017-Sep-24 12:30N 52°24' E 004°52'0 0.0
2017-Sep-24 12:00N 52°24' E 004°52'0 0.0
2017-Sep-24 11:30N 52°24' E 004°52'0 0.0
2017-Sep-24 11:00N 52°24' E 004°52'0 0.0
2017-Sep-24 10:30N 52°24' E 004°52'0 0.0
2017-Sep-24 09:57N 52°24' E 004°52'0 0.0
2017-Sep-24 09:30N 52°24' E 004°52'0 0.0
2017-Sep-24 09:00N 52°24' E 004°52'0 0.0
2017-Sep-24 08:30N 52°24' E 004°52'0 0.0
2017-Sep-24 07:57N 52°24' E 004°52'0 0.0
2017-Sep-24 07:30N 52°24' E 004°52'0 0.0
2017-Sep-24 06:57N 52°24' E 004°52'0 0.0
2017-Sep-24 06:30N 52°24' E 004°52'0 0.0
2017-Sep-24 05:57N 52°24' E 004°52'0 0.0
2017-Sep-24 05:30N 52°24' E 004°52'0 0.0
2017-Sep-24 05:00N 52°24' E 004°52'0 0.0
2017-Sep-24 04:30N 52°24' E 004°52'0 0.0
2017-Sep-24 04:00N 52°24' E 004°52'0 0.0
2017-Sep-24 03:30N 52°24' E 004°52'0 0.0
2017-Sep-24 03:00N 52°24' E 004°52'0 0.0
2017-Sep-24 02:30N 52°24' E 004°52'0 0.0
2017-Sep-24 02:00N 52°24' E 004°52'0 0.0
2017-Sep-24 01:30N 52°24' E 004°52'0 0.0
2017-Sep-24 01:00N 52°24' E 004°52'0 0.0
2017-Sep-24 00:30N 52°24' E 004°52'0 0.0
2017-Sep-24 00:00N 52°24' E 004°52'0 0.0
2017-Sep-23 23:27N 52°24' E 004°52'0 0.0
2017-Sep-23 23:00N 52°24' E 004°52'0 0.0
2017-Sep-23 22:30N 52°24' E 004°52'0 0.0
2017-Sep-23 22:00N 52°24' E 004°52'0 0.0
2017-Sep-23 21:30N 52°24' E 004°52'0 0.0
2017-Sep-23 21:00N 52°24' E 004°52'0 0.0
2017-Sep-23 20:30N 52°24' E 004°52'0 0.0
2017-Sep-23 20:00N 52°24' E 004°52'49 1.1
2017-Sep-22 00:12N 53°09' E 004°22'4 9.8
2017-Sep-21 23:48N 53°13' E 004°25'5 9.9
2017-Sep-21 23:17N 53°17' E 004°29'3 9.8
2017-Sep-21 23:00N 53°20' E 004°31'5 9.6
2017-Sep-21 22:29N 53°24' E 004°35'4 8.9
2017-Sep-21 22:00N 53°28' E 004°39'5 9.0
2017-Sep-21 21:30N 53°29' E 004°46'4 8.7
2017-Sep-21 21:00N 53°31' E 004°53'4 8.4
2017-Sep-21 20:30N 53°32' E 004°59'4 7.9
2017-Sep-21 20:00N 53°34' E 005°05'4 7.8
2017-Sep-21 19:29N 53°35' E 005°12'4 7.6
2017-Sep-21 18:56N 53°37' E 005°19'59 9.5
2017-Sep-21 12:45N 53°55' E 006°53'30 8.5
2017-Sep-21 09:15N 54°01' E 007°43'2 7.9
2017-Sep-21 09:00N 54°01' E 007°46'4 7.9
2017-Sep-21 08:29N 54°01' E 007°53'4 7.9
2017-Sep-21 07:58N 54°01' E 008°00'4 8.1
2017-Sep-21 07:30N 54°01' E 008°06'4 8.8
2017-Sep-21 07:00N 54°01' E 008°14'510.1
2017-Sep-21 06:29N 53°59' E 008°23'611.6
2017-Sep-21 06:00N 53°58' E 008°32'611.9
2017-Sep-21 05:30N 53°55' E 008°41'612.5
2017-Sep-21 05:00N 53°51' E 008°48'612.3
2017-Sep-21 04:30N 53°51' E 008°58'611.3
2017-Sep-21 04:00N 53°53' E 009°07'1 2.5
2017-Sep-21 03:30N 53°54' E 009°09'1 1.3
2017-Sep-21 03:00N 53°54' E 009°10'4 7.0
2017-Sep-21 02:30N 53°57' E 009°14'4 8.3
2017-Sep-21 02:00N 54°00' E 009°18'4 8.3
2017-Sep-21 01:30N 54°04' E 009°19'4 8.2
2017-Sep-21 01:00N 54°08' E 009°20'4 8.3
2017-Sep-21 00:30N 54°10' E 009°26'4 8.2
2017-Sep-21 00:00N 54°12' E 009°33'2 3.2
2017-Sep-20 23:30N 54°13' E 009°35'4 7.4
2017-Sep-20 23:00N 54°16' E 009°38'4 7.5
2017-Sep-20 22:30N 54°19' E 009°43'4 8.0
2017-Sep-20 22:00N 54°22' E 009°47'25 5.1
2017-Sep-20 17:01N 54°32' E 010°27'0 9.5
2017-Sep-20 16:59N 54°32' E 010°27'5 9.7
2017-Sep-20 16:30N 54°34' E 010°34'5 9.3
2017-Sep-20 16:00N 54°35' E 010°42'5 9.4
2017-Sep-20 15:30N 54°35' E 010°50'5 9.5
2017-Sep-20 15:00N 54°36' E 010°59'9 9.2
2017-Sep-20 14:00N 54°35' E 011°14'5 9.3
2017-Sep-20 13:30N 54°33' E 011°22'5 9.5
2017-Sep-20 13:00N 54°31' E 011°29'5 9.2
2017-Sep-20 12:30N 54°29' E 011°36'5 9.2
2017-Sep-20 12:00N 54°27' E 011°44'4 8.9
2017-Sep-20 11:30N 54°27' E 011°51'5 9.0
2017-Sep-20 11:00N 54°27' E 011°59'4 9.0
2017-Sep-20 10:30N 54°27' E 012°07'10 8.6
2017-Sep-20 09:17N 54°36' E 012°15'2 8.9
2017-Sep-20 09:00N 54°38' E 012°18'5 9.0
2017-Sep-20 08:30N 54°40' E 012°24'66 9.1
2017-Sep-20 01:15N 55°08' E 014°09'3 9.5
2017-Sep-20 00:57N 55°10' E 014°12'4 9.6
2017-Sep-20 00:29N 55°13' E 014°17'5 9.7
2017-Sep-19 23:58N 55°17' E 014°23'4 9.8
2017-Sep-19 23:30N 55°21' E 014°28'5 9.8
2017-Sep-19 23:00N 55°24' E 014°33'5 9.7
2017-Sep-19 22:29N 55°28' E 014°40'5 9.9
2017-Sep-19 22:00N 55°30' E 014°47'8 9.9
2017-Sep-19 21:13N 55°34' E 014°59'2 9.7
2017-Sep-19 21:00N 55°35' E 015°02'5 9.6
2017-Sep-19 20:26N 55°38' E 015°11'4 9.5
2017-Sep-19 20:00N 55°40' E 015°17'5 9.4
2017-Sep-19 19:30N 55°42' E 015°24'5 9.6
2017-Sep-19 19:00N 55°45' E 015°31'5 9.5
2017-Sep-19 18:30N 55°47' E 015°39'5 9.4
2017-Sep-19 18:00N 55°49' E 015°46'5 9.2
2017-Sep-19 17:30N 55°52' E 015°53'5 9.2
2017-Sep-19 17:00N 55°54' E 015°60'5 9.1
2017-Sep-19 16:30N 55°56' E 016°07'5 9.2
2017-Sep-19 16:00N 55°59' E 016°14'5 9.4
2017-Sep-19 15:30N 56°01' E 016°21'5 9.3
2017-Sep-19 15:00N 56°04' E 016°28'5 9.5
2017-Sep-19 14:30N 56°06' E 016°36'5 9.4
2017-Sep-19 14:00N 56°09' E 016°43'5 9.3
2017-Sep-19 13:30N 56°13' E 016°46'5 9.6
2017-Sep-19 12:57N 56°18' E 016°50'228 9.4
2017-Sep-18 12:48N 59°47' E 019°39'310.0
2017-Sep-18 12:30N 59°50' E 019°35'5 9.9
2017-Sep-18 12:00N 59°53' E 019°29'510.1
2017-Sep-18 11:30N 59°57' E 019°23'  

Dump ship's entire track history